CDT,Max TemperatureF,Mean TemperatureF,Min TemperatureF,Max Dew PointF,MeanDew PointF,Min DewpointF,Max Humidity, Mean Humidity, Min Humidity, Max Sea Level PressureIn, Mean Sea Level PressureIn, Min Sea Level PressureIn, Max VisibilityMiles, Mean VisibilityMiles, Min VisibilityMiles, Max Wind SpeedMPH, Mean Wind SpeedMPH, Max Gust SpeedMPH,PrecipitationIn, CloudCover, Events, WindDirDegrees
2013-7-1,80,68,55,59,55,50,88,65,45,30.24,30.21,30.16,10,10,7,14,7,18,0.00,1,,138
2013-7-2,82,68,53,63,56,50,94,66,39,30.18,30.12,30.01,10,10,5,12,3,,0.00,0,,121
2013-7-3,86,70,53,63,55,48,88,60,35,30.01,29.86,29.73,10,10,9,16,6,21,0.00,0,,158
2013-7-4,80,70,57,66,60,54,100,70,45,29.84,29.80,29.72,10,10,7,15,7,21,0.00,0,,347
2013-7-5,84,70,55,66,60,54,100,78,48,29.83,29.77,29.69,10,10,4,25,5,33,0.13,2,Rain-Thunderstorm,129
2013-7-6,80,68,57,64,59,52,100,76,37,29.90,29.81,29.74,10,10,6,18,7,26,0.00,1,,253
2013-7-7,77,65,53,61,57,52,100,77,44,29.99,29.95,29.91,10,10,10,10,4,,0.00,1,,163
2013-7-8,82,68,55,66,62,55,100,77,54,30.01,29.93,29.86,10,10,3,23,7,32,0.13,2,Rain,73
2013-7-9,69,61,53,63,57,54,100,85,60,30.13,30.03,29.89,10,9,3,17,6,22,0.00,3,,310
2013-7-10,78,62,46,64,55,46,100,75,42,30.14,30.05,29.94,10,9,4,9,2,,0.00,0,,166
2013-7-11,91,74,57,72,65,57,100,78,43,29.93,29.76,29.61,10,10,2,22,8,29,0.16,0,Rain,133
2013-7-12,82,72,62,66,63,54,100,74,37,29.91,29.77,29.66,10,10,10,10,4,,0.00,1,Rain,299
2013-7-13,86,72,57,68,61,55,100,80,51,30.13,29.95,29.84,10,10,1,47,8,56,0.19,1,Rain,122
2013-7-14,68,60,51,57,55,52,100,83,60,30.27,30.22,30.14,10,10,10,14,8,18,0.00,4,,53
2013-7-15,80,66,53,72,63,54,100,87,69,30.19,30.04,29.88,10,10,10,18,7,28,0.00,5,,131
2013-7-16,69,63,57,64,59,55,100,83,68,30.23,30.11,29.89,10,10,10,16,9,21,0.14,2,,28
2013-7-17,75,68,60,63,59,55,100,77,57,30.23,30.15,30.00,10,10,10,18,8,24,0.00,4,,70
2013-7-18,86,72,57,68,59,48,100,75,29,29.99,29.93,29.87,10,10,10,22,7,33,0.00,0,,314
2013-7-19,84,68,51,59,55,50,100,69,30,30.02,29.98,29.90,10,10,10,20,7,36,0.00,0,,251
2013-7-20,73,62,51,59,57,52,100,81,61,30.02,29.97,29.91,10,10,10,12,6,28,0.00,2,Rain,100
2013-7-21,84,68,53,68,59,54,100,78,51,29.91,29.78,29.64,10,10,10,26,6,33,0.00,0,,181
2013-7-22,73,60,48,57,54,48,100,77,53,29.99,29.91,29.83,10,10,10,13,7,16,0.00,1,,28
2013-7-23,73,62,51,63,57,52,100,83,53,30.08,30.03,29.97,10,10,2,13,5,,0.06,3,Rain,91
2013-7-24,80,65,50,63,57,50,100,77,42,30.09,30.06,30.00,10,9,0,13,4,16,0.00,1,Fog,307
2013-7-25,68,59,50,59,51,43,100,73,45,30.22,30.12,30.00,10,10,10,18,8,28,0.00,2,Rain,339
2013-7-26,69,58,46,50,46,41,100,72,40,30.33,30.27,30.23,10,10,10,13,5,17,0.00,2,,63
2013-7-27,71,55,39,46,42,39,100,64,31,30.26,30.14,30.01,10,10,8,17,8,24,0.00,0,,120
2013-7-28,75,60,46,54,47,43,87,62,41,30.01,29.95,29.87,10,10,10,20,9,28,0.00,0,,128
2013-7-29,73,63,53,63,56,50,100,78,57,30.05,29.93,29.87,10,10,5,17,6,20,0.06,2,Rain,8
2013-7-30,75,62,48,59,54,48,100,83,47,30.16,30.10,30.05,10,10,5,14,3,24,0.00,1,Rain,291
2013-7-31,77,60,44,52,47,41,100,67,28,30.20,30.14,30.08,10,10,8,17,4,30,0.00,1,,283